createdAt,value
2022-12-08T00:18:37.560Z,25
2022-12-08T00:47:47.804Z,23
2022-12-08T01:16:54.697Z,25
2022-12-08T01:45:51.980Z,25
2022-12-08T02:15:05.873Z,28
2022-12-08T02:44:03.333Z,31
2022-12-08T03:13:18.620Z,30
2022-12-08T03:42:29.349Z,31
2022-12-08T04:11:53.581Z,28
2022-12-08T04:41:16.646Z,28
2022-12-08T05:10:39.447Z,27
2022-12-08T05:40:06.039Z,26
2022-12-08T06:09:03.255Z,28
2022-12-08T06:38:24.293Z,28
2022-12-08T07:07:41.391Z,29
2022-12-08T07:36:58.733Z,30
2022-12-08T08:06:19.242Z,27
2022-12-08T08:35:40.054Z,28
2022-12-08T09:05:00.402Z,29
2022-12-08T09:34:13.056Z,28
2022-12-08T10:03:34.980Z,34
2022-12-08T10:32:46.946Z,30
2022-12-08T11:01:52.818Z,31
2022-12-08T11:30:58.639Z,28
2022-12-08T12:00:08.527Z,26
2022-12-08T12:29:12.597Z,25
2022-12-08T12:58:31.148Z,22
2022-12-08T13:27:47.536Z,22
2022-12-08T13:57:11.430Z,21
2022-12-08T14:25:48.352Z,21
2022-12-08T14:55:01.285Z,22
2022-12-08T15:24:10.998Z,22
2022-12-08T15:53:17.104Z,20
2022-12-08T16:51:04.694Z,24
2022-12-08T17:20:13.937Z,31
2022-12-08T17:49:29.769Z,31
2022-12-08T18:18:37.215Z,42
2022-12-08T18:47:54.418Z,27
2022-12-08T19:17:14.666Z,26
2022-12-08T19:46:40.452Z,30
2022-12-08T20:15:18.759Z,40
2022-12-08T20:44:36.286Z,52
2022-12-08T21:13:48.524Z,39
2022-12-08T21:42:53.805Z,33
2022-12-08T22:11:54.610Z,31
2022-12-08T22:41:03.166Z,33
2022-12-08T23:10:11.253Z,27
2022-12-08T23:38:59.916Z,28
